createdAt,value
2019-04-26T00:00:52.019Z,22.77
2019-04-26T00:03:24.110Z,24.57
2019-04-26T00:05:54.607Z,22.52
2019-04-26T00:08:24.550Z,20.32
2019-04-26T00:10:56.386Z,16.60
2019-04-26T00:13:44.858Z,24.70
2019-04-26T00:16:25.466Z,19.27
2019-04-26T00:18:55.631Z,25.25
2019-04-26T00:21:25.763Z,24.75
2019-04-26T00:23:56.325Z,21.37
2019-04-26T00:26:26.754Z,21.57
2019-04-26T00:29:11.253Z,25.70
2019-04-26T00:31:41.422Z,21.65
2019-04-26T00:34:12.605Z,20.70
2019-04-26T00:36:43.795Z,22.35
2019-04-26T00:39:14.344Z,23.57
2019-04-26T00:41:45.883Z,18.07
2019-04-26T00:44:16.599Z,18.87
2019-04-26T00:46:48.844Z,22.45
2019-04-26T00:49:21.256Z,21.60
2019-04-26T00:51:51.743Z,19.07
2019-04-26T00:54:24.364Z,27.93
2019-04-26T00:56:56.178Z,22.15
2019-04-26T00:59:28.251Z,32.83
2019-04-26T01:02:02.835Z,37.67
2019-04-26T01:07:01.943Z,38.17
2019-04-26T01:09:31.991Z,30.60
2019-04-26T01:12:02.078Z,30.52
2019-04-26T01:14:32.207Z,36.65
2019-04-26T01:17:02.285Z,39.75
2019-04-26T01:19:34.679Z,43.13
2019-04-26T01:22:07.689Z,37.15
2019-04-26T01:24:40.743Z,30.90
2019-04-26T01:27:12.414Z,32.05
2019-04-26T01:29:44.195Z,41.30
2019-04-26T01:32:15.282Z,45.65
2019-04-26T01:34:47.165Z,40.88
2019-04-26T01:37:19.223Z,54.60
2019-04-26T01:39:54.548Z,42.67
2019-04-26T01:42:30.347Z,40.73
2019-04-26T01:45:16.946Z,47.25
2019-04-26T01:47:49.836Z,46.10
2019-04-26T01:50:23.562Z,48.75
2019-04-26T01:52:56.119Z,46.10
2019-04-26T01:55:29.162Z,46.95
2019-04-26T01:58:04.679Z,53.50
2019-04-26T02:00:38.587Z,49.18
2019-04-26T02:03:16.489Z,57.62
2019-04-26T02:05:49.956Z,64.80
2019-04-26T02:08:23.422Z,59.38
2019-04-26T02:10:58.217Z,56.70
2019-04-26T02:13:33.016Z,57.10
2019-04-26T02:16:06.653Z,64.03
2019-04-26T02:18:40.252Z,58.75
2019-04-26T02:21:14.478Z,56.42
2019-04-26T02:26:41.335Z,57.30
2019-04-26T02:29:17.395Z,54.55
2019-04-26T02:31:52.226Z,54.73
2019-04-26T02:34:29.032Z,58.25
2019-04-26T02:37:02.322Z,52.05
2019-04-26T02:39:41.646Z,59.90
2019-04-26T02:42:34.002Z,56.15
2019-04-26T02:45:22.016Z,66.15
2019-04-26T02:48:13.437Z,50.17
2019-04-26T02:50:50.430Z,67.65
2019-04-26T02:53:42.931Z,52.33
2019-04-26T02:56:32.210Z,52.90
2019-04-26T02:59:14.305Z,47.30
2019-04-26T03:01:50.600Z,66.85
2019-04-26T03:04:24.703Z,58.73
2019-04-26T03:09:35.090Z,56.92
2019-04-26T03:12:16.990Z,48.40
2019-04-26T03:15:13.320Z,58.42
2019-04-26T03:17:47.241Z,49.33
2019-04-26T03:20:24.230Z,53.87
2019-04-26T03:23:10.297Z,54.85
2019-04-26T03:25:54.766Z,55.25
2019-04-26T03:28:45.572Z,62.93
2019-04-26T03:31:51.929Z,61.75
2019-04-26T03:34:18.016Z,55.17
2019-04-26T03:37:21.031Z,52.10
2019-04-26T03:39:55.279Z,74.62
2019-04-26T03:42:46.872Z,52.25
2019-04-26T03:45:42.113Z,57.05
2019-04-26T03:51:28.638Z,54.88
2019-04-26T03:54:08.076Z,56.63
2019-04-26T03:56:45.527Z,56.23
2019-04-26T03:59:24.497Z,59.33
2019-04-26T04:02:01.172Z,58.13
2019-04-26T04:04:43.432Z,59.85
2019-04-26T04:07:18.820Z,53.45
2019-04-26T04:09:54.267Z,59.18
2019-04-26T04:12:32.170Z,43.87
2019-04-26T04:15:38.110Z,44.00
2019-04-26T04:18:15.187Z,42.73
2019-04-26T04:21:09.512Z,33.95
2019-04-26T04:23:48.765Z,25.23
2019-04-26T04:26:26.047Z,21.00
2019-04-26T04:29:07.819Z,28.12
2019-04-26T04:31:44.198Z,20.92
2019-04-26T04:34:25.908Z,21.00
2019-04-26T04:37:01.220Z,19.55
2019-04-26T04:39:44.850Z,23.77
2019-04-26T04:42:43.609Z,17.52
2019-04-26T04:45:45.508Z,17.50
2019-04-26T04:48:36.120Z,26.15
2019-04-26T04:51:34.910Z,19.12
2019-04-26T04:54:29.395Z,14.38
2019-04-26T04:57:17.493Z,21.95
2019-04-26T05:00:03.023Z,18.30
2019-04-26T05:03:06.281Z,22.30
2019-04-26T05:06:07.325Z,14.58
2019-04-26T05:08:55.947Z,17.45
2019-04-26T05:11:29.006Z,22.60
2019-04-26T05:14:02.021Z,28.90
2019-04-26T05:16:52.739Z,21.52
2019-04-26T05:19:34.659Z,16.55
2019-04-26T05:22:19.884Z,16.87
2019-04-26T05:25:40.185Z,16.55
2019-04-26T05:28:16.991Z,23.83
2019-04-26T05:31:12.276Z,21.90
2019-04-26T05:36:17.727Z,17.32
2019-04-26T05:38:53.334Z,21.17
2019-04-26T05:41:52.073Z,24.47
2019-04-26T05:44:45.787Z,24.95
2019-04-26T05:47:26.390Z,26.10
2019-04-26T05:50:41.184Z,26.93
2019-04-26T05:53:55.767Z,32.40
2019-04-26T05:57:03.236Z,25.62
2019-04-26T05:59:52.309Z,34.55
2019-04-26T06:02:35.739Z,30.68
2019-04-26T06:05:22.199Z,38.25
2019-04-26T06:08:31.720Z,41.90
2019-04-26T06:11:08.939Z,47.60
2019-04-26T06:13:52.300Z,48.05
2019-04-26T06:16:47.551Z,41.58
2019-04-26T06:19:43.031Z,47.17
2019-04-26T06:22:16.147Z,42.98
2019-04-26T06:25:07.226Z,48.55
2019-04-26T06:27:47.470Z,55.58
2019-04-26T06:30:44.960Z,64.92
2019-04-26T06:33:15.658Z,62.93
2019-04-26T06:35:48.982Z,71.62
2019-04-26T06:38:49.176Z,51.75
2019-04-26T06:42:06.066Z,61.98
2019-04-26T06:44:52.311Z,63.45
2019-04-26T06:47:32.426Z,67.82
2019-04-26T06:50:10.066Z,84.50
2019-04-26T06:53:01.550Z,72.00
2019-04-26T06:55:38.834Z,77.85
2019-04-26T06:58:13.513Z,65.52
2019-04-26T07:00:57.564Z,63.13
2019-04-26T07:03:51.611Z,76.13
2019-04-26T07:06:35.161Z,86.10
2019-04-26T07:09:14.063Z,63.50
2019-04-26T07:12:15.790Z,79.75
2019-04-26T07:15:03.877Z,73.40
2019-04-26T07:17:51.716Z,56.42
2019-04-26T07:20:33.631Z,64.80
2019-04-26T07:23:23.104Z,66.50
2019-04-26T07:26:18.270Z,46.10
2019-04-26T07:28:51.388Z,60.78
2019-04-26T07:31:40.471Z,63.33
2019-04-26T07:34:29.835Z,57.30
2019-04-26T07:37:20.610Z,75.62
2019-04-26T07:40:11.475Z,65.37
2019-04-26T07:42:55.051Z,76.82
2019-04-26T07:45:47.875Z,71.15
2019-04-26T07:48:23.911Z,68.20
2019-04-26T07:51:16.243Z,76.02
2019-04-26T07:54:22.135Z,60.38
2019-04-26T07:57:14.418Z,70.28
2019-04-26T08:00:17.445Z,76.90
2019-04-26T08:02:55.111Z,69.62
2019-04-26T08:05:44.310Z,59.88
2019-04-26T08:08:17.434Z,65.78
2019-04-26T08:10:59.502Z,67.17
2019-04-26T08:13:32.567Z,69.47
2019-04-26T08:16:22.099Z,64.72
2019-04-26T08:19:02.471Z,56.88
2019-04-26T08:21:36.255Z,65.40
2019-04-26T08:24:12.441Z,63.23
2019-04-26T08:26:44.820Z,67.90
2019-04-26T08:29:17.587Z,65.55
2019-04-26T08:31:53.622Z,83.58
2019-04-26T08:34:29.744Z,62.85
2019-04-26T08:37:04.210Z,59.53
2019-04-26T08:39:44.923Z,48.87
2019-04-26T08:42:11.883Z,71.33
2019-04-26T08:44:42.979Z,60.55
2019-04-26T08:47:21.230Z,56.63
2019-04-26T08:49:51.411Z,59.33
2019-04-26T08:52:23.908Z,63.70
2019-04-26T08:54:56.470Z,53.33
2019-04-26T08:57:29.840Z,49.40
2019-04-26T09:00:02.259Z,45.98
2019-04-26T09:02:47.101Z,54.50
2019-04-26T09:05:24.902Z,48.68
2019-04-26T09:07:58.922Z,40.17
2019-04-26T09:10:31.887Z,46.42
2019-04-26T09:13:03.739Z,46.73
2019-04-26T09:15:57.643Z,39.50
2019-04-26T09:18:27.871Z,37.75
2019-04-26T09:20:58.072Z,33.90
2019-04-26T09:23:44.351Z,44.40
2019-04-26T09:26:26.752Z,40.05
2019-04-26T09:29:14.843Z,37.53
2019-04-26T09:31:50.583Z,41.65
2019-04-26T09:34:25.520Z,31.57
2019-04-26T09:36:55.462Z,37.17
2019-04-26T09:39:25.915Z,40.63
2019-04-26T09:41:57.539Z,33.30
2019-04-26T09:44:41.557Z,38.63
2019-04-26T09:47:14.546Z,28.17
2019-04-26T09:50:02.615Z,35.17
2019-04-26T09:52:34.449Z,32.70
2019-04-26T09:55:07.053Z,23.38
2019-04-26T09:57:37.098Z,42.03
2019-04-26T10:00:14.281Z,31.35
2019-04-26T10:02:43.051Z,38.30
2019-04-26T10:05:13.637Z,30.00
2019-04-26T10:07:43.691Z,38.33
2019-04-26T10:10:22.664Z,43.08
2019-04-26T10:13:05.798Z,41.42
2019-04-26T10:15:38.998Z,37.95
2019-04-26T10:18:09.175Z,29.52
2019-04-26T10:20:39.178Z,42.53
2019-04-26T10:23:09.226Z,33.98
2019-04-26T10:25:39.377Z,36.53
2019-04-26T10:28:11.735Z,31.60
2019-04-26T10:30:42.399Z,36.00
2019-04-26T10:33:13.420Z,40.90
2019-04-26T10:35:43.456Z,35.17
2019-04-26T10:38:13.474Z,40.17
2019-04-26T10:40:43.515Z,39.00
2019-04-26T10:43:13.811Z,38.73
2019-04-26T10:45:45.894Z,38.02
2019-04-26T10:48:15.753Z,31.60
2019-04-26T10:50:45.813Z,38.60
2019-04-26T10:53:30.233Z,28.30
2019-04-26T10:56:05.618Z,31.17
2019-04-26T10:58:44.175Z,44.85
2019-04-26T11:01:15.899Z,40.55
2019-04-26T11:03:46.026Z,43.83
2019-04-26T11:06:16.315Z,39.60
2019-04-26T11:08:46.356Z,31.93
2019-04-26T11:11:16.479Z,26.12
2019-04-26T11:13:46.599Z,22.82
2019-04-26T11:16:16.823Z,24.23
2019-04-26T11:18:46.914Z,18.80
2019-04-26T11:21:20.838Z,19.67
2019-04-26T11:23:49.986Z,31.27
2019-04-26T11:26:20.192Z,26.00
2019-04-26T11:28:51.366Z,29.95
2019-04-26T11:31:23.451Z,30.72
2019-04-26T11:34:04.622Z,28.38
2019-04-26T11:36:25.230Z,39.70
2019-04-26T11:38:55.290Z,32.23
2019-04-26T11:41:25.335Z,33.10
2019-04-26T11:43:55.333Z,33.20
2019-04-26T11:46:29.257Z,30.08
2019-04-26T11:48:59.208Z,30.90
2019-04-26T11:51:28.874Z,27.50
2019-04-26T11:53:58.950Z,25.05
2019-04-26T11:56:29.019Z,32.17
2019-04-26T11:58:58.967Z,33.15
2019-04-26T12:01:30.271Z,29.23
2019-04-26T12:04:16.864Z,35.40
2019-04-26T12:06:51.317Z,34.20
2019-04-26T12:12:05.397Z,23.83
2019-04-26T12:14:36.761Z,35.45
2019-04-26T12:17:06.955Z,42.25
2019-04-26T12:19:37.105Z,34.63
2019-04-26T12:22:08.368Z,33.30
2019-04-26T12:24:39.128Z,40.70
2019-04-26T12:27:10.322Z,29.37
2019-04-26T12:29:44.252Z,19.87
2019-04-26T12:32:12.372Z,33.08
2019-04-26T12:34:42.527Z,21.95
2019-04-26T12:37:19.780Z,23.67
2019-04-26T12:39:44.414Z,24.82
2019-04-26T12:42:14.783Z,21.25
2019-04-26T12:44:46.507Z,17.82
2019-04-26T12:47:23.667Z,27.22
2019-04-26T12:49:54.551Z,26.73
2019-04-26T12:52:25.347Z,30.97
2019-04-26T12:54:57.624Z,26.27
2019-04-26T12:57:27.209Z,26.82
2019-04-26T12:59:57.604Z,25.32
2019-04-26T13:02:29.151Z,20.50
2019-04-26T13:04:59.283Z,19.15
2019-04-26T13:07:29.501Z,20.20
2019-04-26T13:10:06.864Z,20.10
2019-04-26T13:12:47.246Z,17.73
2019-04-26T13:15:58.662Z,21.75
2019-04-26T13:18:29.889Z,28.90
2019-04-26T13:21:03.095Z,19.80
2019-04-26T13:23:31.895Z,22.50
2019-04-26T13:26:01.991Z,23.57
2019-04-26T13:28:32.105Z,23.73
2019-04-26T13:31:02.676Z,17.73
2019-04-26T13:33:33.861Z,18.85
2019-04-26T13:36:04.158Z,20.05
2019-04-26T13:38:34.289Z,21.23
2019-04-26T13:41:06.266Z,18.82
2019-04-26T13:43:36.507Z,17.48
2019-04-26T13:46:23.359Z,18.52
2019-04-26T13:49:01.741Z,13.35
2019-04-26T13:51:35.406Z,15.03
2019-04-26T13:54:05.528Z,14.37
2019-04-26T13:56:35.963Z,12.88
2019-04-26T13:59:07.288Z,14.43
2019-04-26T14:01:37.435Z,11.55
2019-04-26T14:04:08.920Z,13.62
2019-04-26T14:06:40.816Z,12.75
2019-04-26T14:09:12.662Z,11.40
2019-04-26T14:11:44.117Z,14.05
2019-04-26T14:14:14.227Z,14.65
2019-04-26T14:16:44.491Z,11.95
2019-04-26T14:19:16.668Z,8.20
2019-04-26T14:21:46.382Z,8.90
2019-04-26T14:24:25.051Z,6.58
2019-04-26T14:26:59.262Z,8.75
2019-04-26T14:29:32.499Z,5.85
2019-04-26T14:32:01.003Z,10.13
2019-04-26T14:34:31.157Z,5.97
2019-04-26T14:37:06.619Z,5.58
2019-04-26T14:39:49.286Z,13.05
2019-04-26T14:42:04.689Z,12.47
2019-04-26T14:44:35.287Z,7.92
2019-04-26T14:47:13.961Z,10.40
2019-04-26T14:49:39.202Z,11.50
2019-04-26T14:52:08.751Z,10.95
2019-04-26T14:54:41.535Z,6.75
2019-04-26T14:57:15.578Z,10.45
2019-04-26T14:59:46.808Z,7.15
2019-04-26T15:02:33.300Z,9.00
2019-04-26T15:05:12.308Z,8.55
2019-04-26T15:07:49.491Z,8.93
2019-04-26T15:10:15.806Z,9.80
2019-04-26T15:12:48.423Z,14.90
2019-04-26T15:15:17.570Z,8.03
2019-04-26T15:17:47.630Z,7.83
2019-04-26T15:20:20.877Z,7.65
2019-04-26T15:22:50.139Z,7.10
2019-04-26T15:25:20.183Z,5.83
2019-04-26T15:27:52.104Z,7.17
2019-04-26T15:30:22.068Z,7.15
2019-04-26T15:32:53.638Z,6.35
2019-04-26T15:35:23.775Z,4.78
2019-04-26T15:37:57.467Z,10.88
2019-04-26T15:40:35.993Z,3.55
2019-04-26T15:43:14.243Z,5.03
2019-04-26T15:45:57.138Z,9.38
2019-04-26T15:48:28.851Z,11.33
2019-04-26T15:50:58.900Z,4.15
2019-04-26T15:53:28.903Z,9.80
2019-04-26T15:55:59.026Z,10.58
2019-04-26T15:58:29.168Z,2.62
2019-04-26T16:00:59.351Z,4.53
2019-04-26T16:03:29.525Z,7.40
2019-04-26T16:06:06.917Z,6.00
2019-04-26T16:08:35.111Z,5.72
2019-04-26T16:11:03.087Z,6.17
2019-04-26T16:13:33.067Z,4.70
2019-04-26T16:16:03.835Z,8.00
2019-04-26T16:18:34.118Z,8.73
2019-04-26T16:21:04.227Z,5.62
2019-04-26T16:23:41.049Z,3.05
2019-04-26T16:26:08.315Z,5.95
2019-04-26T16:28:44.385Z,8.63
2019-04-26T16:31:15.634Z,5.47
2019-04-26T16:33:56.287Z,6.58
2019-04-26T16:36:28.358Z,2.02
2019-04-26T16:38:58.491Z,5.95
2019-04-26T16:41:33.815Z,2.67
2019-04-26T16:44:00.491Z,2.27
2019-04-26T16:46:30.579Z,2.50
2019-04-26T16:49:02.307Z,3.77
2019-04-26T16:51:34.053Z,2.08
2019-04-26T16:54:08.713Z,3.40
2019-04-26T16:56:36.109Z,7.22
2019-04-26T16:59:07.195Z,2.87
2019-04-26T17:01:38.217Z,2.05
2019-04-26T17:04:11.242Z,2.60
2019-04-26T17:06:44.642Z,2.33
2019-04-26T17:09:14.353Z,3.52
2019-04-26T17:11:43.921Z,2.92
2019-04-26T17:14:14.040Z,2.90
2019-04-26T17:16:44.417Z,4.20
2019-04-26T17:19:14.518Z,2.05
2019-04-26T17:21:47.170Z,2.47
2019-04-26T17:24:18.810Z,5.05
2019-04-26T17:26:53.506Z,2.50
2019-04-26T17:29:23.508Z,4.35
2019-04-26T17:31:53.683Z,2.90
2019-04-26T17:34:28.847Z,2.08
2019-04-26T17:36:56.316Z,4.05
2019-04-26T17:39:26.418Z,6.37
2019-04-26T17:41:56.427Z,2.15
2019-04-26T17:44:28.199Z,1.82
2019-04-26T17:47:00.202Z,9.10
2019-04-26T17:49:34.326Z,11.68
2019-04-26T17:52:02.094Z,5.58
2019-04-26T17:54:46.073Z,6.17
2019-04-26T17:57:09.051Z,8.85
2019-04-26T17:59:45.157Z,8.50
2019-04-26T18:02:24.106Z,13.48
2019-04-26T18:04:43.000Z,11.08
2019-04-26T18:07:36.257Z,6.95
2019-04-26T18:09:46.818Z,4.70
2019-04-26T18:12:16.533Z,2.65
2019-04-26T18:14:46.901Z,3.35
2019-04-26T18:17:23.155Z,2.52
2019-04-26T18:20:06.483Z,3.87
2019-04-26T18:22:40.768Z,5.62
2019-04-26T18:25:13.061Z,2.40
2019-04-26T18:27:43.491Z,3.30
2019-04-26T18:30:14.366Z,5.53
2019-04-26T18:32:47.733Z,2.72
2019-04-26T18:35:16.911Z,5.50
2019-04-26T18:37:47.119Z,4.35
2019-04-26T18:40:20.278Z,8.70
2019-04-26T18:42:49.209Z,5.60
2019-04-26T18:45:28.036Z,5.87
2019-04-26T18:47:54.793Z,6.50
2019-04-26T18:50:23.768Z,8.03
2019-04-26T18:53:14.009Z,6.30
2019-04-26T18:55:45.751Z,2.58
2019-04-26T18:58:15.912Z,4.25
2019-04-26T19:00:46.110Z,2.12
2019-04-26T19:03:16.208Z,1.32
2019-04-26T19:05:47.145Z,1.45
2019-04-26T19:08:20.891Z,1.67
2019-04-26T19:10:59.192Z,1.22
2019-04-26T19:13:36.465Z,1.40
2019-04-26T19:16:15.105Z,3.77
2019-04-26T19:18:52.908Z,1.72
2019-04-26T19:21:32.343Z,3.37
2019-04-26T19:24:07.661Z,7.47
2019-04-26T19:26:35.226Z,4.03
2019-04-26T19:29:15.620Z,3.72
2019-04-26T19:31:37.176Z,3.40
2019-04-26T19:34:07.267Z,3.37
2019-04-26T19:36:37.398Z,5.97
2019-04-26T19:39:07.659Z,8.05
2019-04-26T19:41:39.366Z,2.12
2019-04-26T19:44:10.537Z,3.37
2019-04-26T19:46:44.271Z,3.77
2019-04-26T19:49:15.755Z,12.00
2019-04-26T19:52:05.465Z,2.37
2019-04-26T19:54:38.552Z,3.30
2019-04-26T19:57:13.137Z,3.55
2019-04-26T20:02:13.373Z,3.12
2019-04-26T20:04:44.209Z,2.98
2019-04-26T20:07:14.589Z,5.50
2019-04-26T20:09:44.783Z,4.28
2019-04-26T20:12:15.007Z,3.10
2019-04-26T20:14:50.664Z,4.65
2019-04-26T20:17:19.906Z,4.75
2019-04-26T20:19:53.970Z,5.80
2019-04-26T20:22:28.128Z,3.22
2019-04-26T20:24:55.986Z,6.65
2019-04-26T20:27:27.636Z,7.17
2019-04-26T20:29:56.008Z,9.58
2019-04-26T20:32:33.644Z,5.58
2019-04-26T20:35:19.763Z,4.83
2019-04-26T20:37:51.978Z,6.83
2019-04-26T20:40:25.143Z,5.45
2019-04-26T20:43:02.055Z,5.80
2019-04-26T20:45:38.373Z,7.33
2019-04-26T20:47:57.514Z,5.72
2019-04-26T20:50:28.557Z,8.45
2019-04-26T20:53:02.044Z,8.18
2019-04-26T20:55:34.479Z,6.15
2019-04-26T20:58:05.736Z,3.58
2019-04-26T21:00:36.590Z,6.08
2019-04-26T21:03:06.563Z,8.30
2019-04-26T21:05:45.856Z,5.28
2019-04-26T21:08:09.496Z,8.60
2019-04-26T21:10:39.626Z,4.37
2019-04-26T21:13:09.814Z,10.40
2019-04-26T21:15:53.490Z,5.97
2019-04-26T21:18:12.389Z,6.83
2019-04-26T21:20:42.701Z,4.03
2019-04-26T21:23:15.235Z,13.83
2019-04-26T21:25:46.348Z,5.58
2019-04-26T21:28:17.999Z,4.12
2019-04-26T21:30:53.504Z,5.53
2019-04-26T21:33:28.596Z,6.95
2019-04-26T21:36:10.307Z,6.55
2019-04-26T21:38:47.922Z,4.97
2019-04-26T21:41:19.666Z,7.37
2019-04-26T21:43:49.677Z,3.47
2019-04-26T21:46:20.851Z,5.28
2019-04-26T21:48:50.970Z,4.35
2019-04-26T21:51:22.838Z,4.00
2019-04-26T21:53:53.079Z,3.85
2019-04-26T21:56:23.589Z,4.62
2019-04-26T21:58:54.527Z,8.15
2019-04-26T22:01:25.239Z,6.00
2019-04-26T22:03:58.317Z,11.97
2019-04-26T22:06:28.756Z,10.10
2019-04-26T22:09:03.323Z,6.42
2019-04-26T22:11:33.617Z,8.90
2019-04-26T22:14:14.120Z,8.78
2019-04-26T22:16:57.655Z,18.45
2019-04-26T22:19:32.454Z,8.83
2019-04-26T22:22:18.479Z,18.10
2019-04-26T22:24:51.045Z,17.35
2019-04-26T22:27:21.899Z,13.13
2019-04-26T22:29:55.023Z,14.50
2019-04-26T22:32:25.282Z,13.10
2019-04-26T22:34:55.471Z,10.10
2019-04-26T22:37:29.979Z,151.70
2019-04-26T22:39:57.195Z,17.37
2019-04-26T22:42:28.577Z,12.30
2019-04-26T22:45:03.354Z,7.03
2019-04-26T22:47:45.556Z,6.05
2019-04-26T22:50:20.793Z,8.58
2019-04-26T22:52:51.482Z,6.72
2019-04-26T22:55:24.607Z,6.15
2019-04-26T22:57:53.011Z,6.85
2019-04-26T23:00:29.170Z,7.03
2019-04-26T23:02:58.219Z,7.85
2019-04-26T23:05:30.572Z,7.37
2019-04-26T23:08:01.058Z,6.58
2019-04-26T23:10:34.146Z,5.33
2019-04-26T23:13:07.958Z,8.10
2019-04-26T23:15:43.287Z,9.93
2019-04-26T23:18:26.991Z,5.95
2019-04-26T23:21:15.009Z,8.93
2019-04-26T23:23:45.134Z,8.03
2019-04-26T23:26:15.146Z,6.65
2019-04-26T23:28:45.123Z,7.08
2019-04-26T23:31:15.154Z,8.00
2019-04-26T23:33:45.157Z,9.43
2019-04-26T23:36:18.306Z,9.08
2019-04-26T23:38:46.770Z,8.05
2019-04-26T23:41:16.823Z,7.05
2019-04-26T23:43:46.894Z,8.45
2019-04-26T23:46:18.825Z,8.03
2019-04-26T23:48:49.683Z,10.95
2019-04-26T23:51:19.683Z,17.65
2019-04-26T23:53:50.528Z,11.25
2019-04-26T23:56:24.674Z,16.93
2019-04-26T23:58:53.170Z,13.93
